Time;durP1;ratioP1;P1;durP2;ratioP2;P2;SDS_P1;SDS_P2;PMS_P1;PMS_P2;Temp;Humidity;BMP_temperature;BMP_pressure;BME280_temperature;BME280_humidity;BME280_pressure;Samples;Min_cycle;Max_cycle;Signal;HPM_P1;HPM_P2
2022/10/29 00:01:21;;;;;;;23.40;22.50;;;14.50;94.00;;;;;;4857932;29;20084;-75
2022/10/29 00:03:48;;;;;;;22.33;21.42;;;14.60;94.00;;;;;;4857895;29;20173;-76
2022/10/29 00:06:13;;;;;;;20.25;19.45;;;14.60;94.00;;;;;;4874316;29;20366;-75
2022/10/29 00:08:40;;;;;;;23.52;22.63;;;14.60;94.00;;;;;;4857627;29;20060;-75
2022/10/29 00:11:18;;;;;;;23.17;22.27;;;14.60;94.00;;;;;;4857421;29;20358;-75
2022/10/29 00:13:45;;;;;;;21.60;20.70;;;14.50;94.00;;;;;;4874106;29;20096;-76
2022/10/29 00:16:19;;;;;;;23.60;22.70;;;14.50;94.00;;;;;;4857445;29;20033;-76
2022/10/29 00:18:45;;;;;;;22.73;21.83;;;14.50;94.10;;;;;;4874346;29;20073;-75
2022/10/29 00:21:12;;;;;;;;;;;14.50;94.00;;;;;;4874752;29;20085;-75
2022/10/29 00:23:38;;;;;;;22.65;21.75;;;14.50;94.10;;;;;;4874226;29;20431;-75
2022/10/29 00:26:04;;;;;;;24.30;23.30;;;14.50;94.00;;;;;;4857352;29;20029;-75
2022/10/29 00:28:30;;;;;;;23.10;22.20;;;14.50;94.00;;;;;;4857717;29;20385;-80
2022/10/29 00:30:56;;;;;;;20.27;19.48;;;14.50;94.00;;;;;;4874160;29;20033;-80
2022/10/29 00:33:22;;;;;;;24.83;23.83;;;14.50;94.00;;;;;;4874372;29;20385;-80
2022/10/29 00:35:58;;;;;;;21.15;20.33;;;14.50;94.00;;;;;;4873711;29;20036;-81
2022/10/29 00:38:25;;;;;;;21.90;21.00;;;14.50;94.00;;;;;;4859352;29;20021;-80
2022/10/29 00:40:51;;;;;;;20.92;20.13;;;14.50;94.00;;;;;;4859269;29;20049;-81
2022/10/29 00:43:19;;;;;;;20.45;19.65;;;14.60;94.20;;;;;;4857763;29;20044;-80
2022/10/29 00:45:52;;;;;;;20.52;19.73;;;14.60;94.00;;;;;;4874046;29;20100;-81
2022/10/29 00:48:19;;;;;;;17.40;16.70;;;14.60;94.00;;;;;;4874423;29;20025;-81
2022/10/29 00:50:46;;;;;;;16.25;15.55;;;14.60;94.10;;;;;;4874276;29;20028;-81
2022/10/29 00:53:14;;;;;;;17.88;17.17;;;14.70;94.10;;;;;;4874255;29;20390;-81
2022/10/29 00:55:39;;;;;;;16.60;15.90;;;14.70;94.10;;;;;;4873773;29;20037;-81
2022/10/29 00:58:05;;;;;;;19.05;18.15;;;14.70;94.10;;;;;;4857485;29;20405;-80
2022/10/29 01:00:31;;;;;;;18.85;18.05;;;14.80;94.10;;;;;;4874266;29;20037;-80
2022/10/29 01:02:57;;;;;;;17.83;17.13;;;14.80;94.00;;;;;;4857459;29;20041;-81
2022/10/29 01:05:24;;;;;;;17.90;17.20;;;14.80;94.10;;;;;;4873708;29;20108;-79
2022/10/29 01:07:50;;;;;;;16.77;16.08;;;14.80;94.10;;;;;;4874199;29;20101;-80
2022/10/29 01:10:22;;;;;;;17.40;16.70;;;14.80;94.10;;;;;;4857255;29;20083;-81
2022/10/29 01:13:11;;;;;;;18.92;18.13;;;14.80;94.10;;;;;;4873965;29;20108;-81
2022/10/29 01:15:44;;;;;;;17.63;16.92;;;14.80;94.00;;;;;;4873867;29;20470;-80
2022/10/29 01:18:14;;;;;;;17.85;17.15;;;14.80;94.00;;;;;;4874044;29;20474;-80
2022/10/29 01:21:17;;;;;;;18.88;18.08;;;14.80;94.00;;;;;;4873958;29;20509;-81
2022/10/29 01:24:20;;;;;;;16.02;15.32;;;14.90;94.10;;;;;;4857070;29;20061;-81
2022/10/29 01:26:54;;;;;;;15.60;14.90;;;14.90;94.10;;;;;;4873842;29;20041;-81
2022/10/29 01:29:32;;;;;;;16.17;15.48;;;14.90;94.10;;;;;;4873661;29;20034;-80
2022/10/29 01:32:27;;;;;;;16.15;15.45;;;14.90;94.00;;;;;;4857456;29;20401;-81
2022/10/29 01:35:08;;;;;;;14.93;14.32;;;14.90;94.00;;;;;;4844460;29;20045;-80
2022/10/29 01:37:58;;;;;;;15.77;15.07;;;14.90;94.10;;;;;;4856920;29;20029;-80
2022/10/29 01:40:34;;;;;;;15.32;14.68;;;14.90;94.10;;;;;;4873705;29;20025;-80
2022/10/29 01:43:09;;;;;;;16.02;15.32;;;15.00;94.10;;;;;;4873856;29;20033;-80
2022/10/29 01:45:42;;;;;;;14.18;13.57;;;14.90;94.10;;;;;;4874132;29;20067;-80
2022/10/29 01:48:18;;;;;;;12.05;11.55;;;14.90;94.10;;;;;;4876153;29;20451;-80
2022/10/29 01:50:48;;;;;;;12.68;12.07;;;14.90;94.10;;;;;;4876836;29;20183;-80
2022/10/29 01:53:16;;;;;;;12.23;11.73;;;14.90;94.10;;;;;;4876800;29;20177;-80
2022/10/29 01:55:42;;;;;;;12.07;11.57;;;15.00;94.10;;;;;;4859780;29;20136;-80
2022/10/29 01:58:09;;;;;;;13.40;12.80;;;15.00;94.10;;;;;;4860577;29;20546;-80
2022/10/29 02:00:44;;;;;;;13.50;12.90;;;15.00;94.10;;;;;;4876722;29;20036;-75
2022/10/29 02:03:23;;;;;;;13.30;12.70;;;15.00;94.10;;;;;;4859962;29;20473;-80
2022/10/29 02:06:21;;;;;;;13.70;13.10;;;15.00;94.00;;;;;;4876664;29;20245;-80
2022/10/29 02:08:57;;;;;;;14.68;14.07;;;14.90;94.00;;;;;;4876637;29;20035;-81
2022/10/29 02:11:30;;;;;;;13.68;13.07;;;14.90;94.10;;;;;;4876632;29;20089;-80
2022/10/29 02:14:01;;;;;;;15.02;14.43;;;14.90;94.10;;;;;;4876537;29;20064;-80
2022/10/29 02:16:28;;;;;;;13.45;12.85;;;14.80;94.10;;;;;;4878480;29;20021;-80
2022/10/29 02:18:56;;;;;;;14.70;14.10;;;14.80;94.10;;;;;;4876916;29;20067;-80
2022/10/29 02:21:22;;;;;;;15.05;14.45;;;14.80;94.10;;;;;;4876540;29;20052;-81
2022/10/29 02:23:48;;;;;;;10.00;9.50;;;14.80;94.00;;;;;;4876701;29;20067;-80
2022/10/29 02:26:14;;;;;;;10.27;9.77;;;14.80;94.00;;;;;;4876601;29;20041;-81
2022/10/29 02:28:40;;;;;;;11.52;11.02;;;14.80;94.00;;;;;;4876589;29;20029;-81
2022/10/29 02:31:06;;;;;;;11.00;10.50;;;14.90;94.00;;;;;;4876343;29;20029;-80
2022/10/29 02:33:32;;;;;;;9.70;9.20;;;14.90;94.00;;;;;;4859634;29;20047;-80
2022/10/29 02:35:57;;;;;;;10.85;10.35;;;14.90;94.00;;;;;;4876509;29;20091;-80
2022/10/29 02:38:23;;;;;;;10.98;10.48;;;14.90;94.00;;;;;;4876388;29;20040;-81
2022/10/29 02:40:49;;;;;;;14.20;13.60;;;14.90;94.00;;;;;;4876154;29;20045;-81
2022/10/29 02:43:14;;;;;;;14.10;13.50;;;14.90;94.00;;;;;;4876562;29;20033;-81
2022/10/29 02:45:40;;;;;;;13.75;13.15;;;14.90;93.90;;;;;;4876292;29;20116;-80
2022/10/29 02:48:06;;;;;;;13.75;13.15;;;14.80;94.00;;;;;;4876256;29;20033;-80
2022/10/29 02:50:31;;;;;;;15.35;14.68;;;14.70;94.00;;;;;;4859418;29;20037;-80
2022/10/29 02:52:57;;;;;;;15.73;15.02;;;14.60;94.00;;;;;;4859498;29;20044;-81
2022/10/29 02:55:23;;;;;;;18.85;18.05;;;14.60;94.10;;;;;;4859403;29;20045;-81
2022/10/29 02:57:49;;;;;;;15.50;14.80;;;14.50;94.10;;;;;;4858977;29;20041;-76
2022/10/29 03:00:15;;;;;;;19.63;18.83;;;14.50;94.10;;;;;;4875806;29;20106;-81
2022/10/29 03:02:40;;;;;;;16.95;16.25;;;14.50;94.10;;;;;;4859232;29;20425;-80
2022/10/29 03:05:06;;;;;;;19.40;18.60;;;14.50;94.10;;;;;;4859041;29;20044;-80
2022/10/29 03:07:36;;;;;;;16.58;15.88;;;14.50;94.00;;;;;;4843768;29;20037;-80
2022/10/29 03:10:04;;;;;;;17.23;16.52;;;14.50;94.00;;;;;;4875807;29;20033;-79
2022/10/29 03:12:30;;;;;;;15.00;14.40;;;14.50;94.00;;;;;;4875748;29;20237;-79
2022/10/29 03:14:55;;;;;;;17.92;17.23;;;14.50;94.00;;;;;;4858781;29;20557;-79
2022/10/29 03:17:21;;;;;;;17.00;16.30;;;14.50;94.00;;;;;;4875501;29;20037;-80
2022/10/29 03:19:47;;;;;;;15.20;14.60;;;14.50;94.00;;;;;;4875652;29;20066;-79
2022/10/29 03:22:12;;;;;;;16.23;15.52;;;14.50;94.00;;;;;;4875639;29;20045;-80
2022/10/29 03:24:38;;;;;;;14.02;13.43;;;14.50;94.00;;;;;;4875644;29;20072;-79
2022/10/29 03:27:04;;;;;;;15.60;14.90;;;14.60;94.10;;;;;;4875440;29;20048;-79
2022/10/29 03:29:30;;;;;;;13.30;12.70;;;14.60;94.10;;;;;;4875476;29;20048;-79
2022/10/29 03:31:55;;;;;;;14.18;13.57;;;14.60;94.10;;;;;;4858840;29;20029;-79
2022/10/29 03:34:21;;;;;;;12.23;11.73;;;14.70;94.10;;;;;;4858616;29;20044;-79
2022/10/29 03:36:47;;;;;;;13.93;13.32;;;14.80;94.10;;;;;;4875223;29;20039;-79
2022/10/29 03:39:12;;;;;;;10.95;10.45;;;14.80;94.10;;;;;;4858534;29;20342;-79
2022/10/29 03:41:38;;;;;;;12.48;11.90;;;14.90;94.10;;;;;;4858465;29;20039;-79
2022/10/29 03:44:04;;;;;;;13.65;13.05;;;14.90;94.10;;;;;;4875064;29;20101;-79
2022/10/29 03:46:30;;;;;;;13.00;12.40;;;14.90;94.10;;;;;;4875243;29;20052;-79
2022/10/29 03:48:55;;;;;;;13.70;13.10;;;15.00;94.10;;;;;;4875180;29;20045;-81
2022/10/29 03:51:21;;;;;;;15.60;14.90;;;15.00;94.10;;;;;;4874834;29;20041;-81
2022/10/29 03:53:47;;;;;;;14.10;13.50;;;15.00;94.10;;;;;;4877110;29;20415;-80
2022/10/29 03:56:12;;;;;;;16.90;16.20;;;15.00;94.10;;;;;;4875322;29;20057;-81
2022/10/29 03:58:38;;;;;;;16.73;16.02;;;15.00;94.00;;;;;;4875002;29;20037;-81
2022/10/29 04:01:06;;;;;;;13.38;12.77;;;15.00;94.00;;;;;;4875409;29;20512;-81
2022/10/29 04:03:33;;;;;;;13.43;12.82;;;15.00;94.10;;;;;;4875083;29;20028;-81
2022/10/29 04:06:01;;;;;;;13.70;13.10;;;15.00;94.10;;;;;;4874787;29;20033;-81
2022/10/29 04:08:26;;;;;;;15.13;14.52;;;15.10;94.10;;;;;;4858218;29;20060;-81
2022/10/29 04:10:52;;;;;;;15.90;15.20;;;15.00;94.10;;;;;;4858059;29;20038;-81
2022/10/29 04:13:18;;;;;;;16.45;15.75;;;15.10;94.10;;;;;;4874754;29;20037;-81
2022/10/29 04:15:44;;;;;;;16.27;15.57;;;15.10;94.00;;;;;;4857962;29;20036;-81
2022/10/29 04:18:11;;;;;;;13.93;13.32;;;15.00;94.00;;;;;;4858398;29;20037;-80
2022/10/29 04:20:37;;;;;;;;;;;15.00;94.10;;;;;;4858637;29;20044;-79
2022/10/29 04:23:03;;;;;;;14.40;13.80;;;15.00;94.10;;;;;;4874549;29;20511;-79
2022/10/29 04:25:29;;;;;;;17.10;16.40;;;15.10;94.10;;;;;;4874579;29;20033;-79
2022/10/29 04:27:55;;;;;;;15.90;15.20;;;15.10;94.10;;;;;;4874662;29;20501;-80
2022/10/29 04:30:22;;;;;;;16.40;15.70;;;15.10;94.10;;;;;;4874318;29;20486;-80
2022/10/29 04:32:47;;;;;;;15.00;14.40;;;15.10;94.10;;;;;;4874541;29;20049;-79
2022/10/29 04:35:13;;;;;;;16.45;15.75;;;15.10;94.30;;;;;;4874431;29;20037;-80
2022/10/29 04:37:39;;;;;;;14.90;14.30;;;15.00;94.10;;;;;;4874377;29;20505;-80
2022/10/29 04:40:05;;;;;;;14.57;13.98;;;15.00;94.10;;;;;;4874485;29;20048;-74
2022/10/29 04:42:40;;;;;;;13.20;12.60;;;15.00;94.10;;;;;;4857272;29;20041;-74
2022/10/29 04:45:07;;;;;;;13.90;13.30;;;15.00;94.10;;;;;;4857060;29;20080;-74
2022/10/29 04:47:32;;;;;;;14.43;13.82;;;15.10;94.10;;;;;;4857140;29;20065;-80
2022/10/29 04:49:58;;;;;;;12.70;12.10;;;15.10;94.10;;;;;;4857150;29;20056;-73
2022/10/29 04:52:24;;;;;;;12.80;12.20;;;15.20;94.10;;;;;;4873996;29;20116;-81
2022/10/29 04:54:50;;;;;;;;;;;15.20;94.10;;;;;;4857500;29;20025;-80
2022/10/29 04:57:16;;;;;;;11.77;11.27;;;15.20;94.10;;;;;;4873781;29;19949;-81
2022/10/29 04:59:41;;;;;;;11.80;11.30;;;15.20;94.00;;;;;;4857199;29;20029;-74
2022/10/29 05:02:07;;;;;;;11.60;11.10;;;15.20;94.10;;;;;;4873828;29;20044;-74
2022/10/29 05:04:33;;;;;;;12.98;12.38;;;15.20;94.10;;;;;;4857400;29;20625;-74
2022/10/29 05:06:58;;;;;;;12.50;11.90;;;15.20;94.10;;;;;;4857272;29;20501;-74
2022/10/29 05:09:24;;;;;;;14.40;13.80;;;15.20;94.10;;;;;;4873698;29;20037;-74
2022/10/29 05:11:50;;;;;;;15.18;14.57;;;15.20;94.10;;;;;;4841733;29;20044;-74
2022/10/29 05:14:15;;;;;;;17.60;16.90;;;15.20;94.10;;;;;;4873700;29;20033;-74
2022/10/29 05:16:41;;;;;;;18.60;17.80;;;15.10;94.10;;;;;;4857036;29;20045;-74
2022/10/29 05:19:07;;;;;;;25.00;24.00;;;15.10;94.00;;;;;;4873710;29;20032;-74
2022/10/29 05:21:32;;;;;;;29.05;27.95;;;15.00;94.00;;;;;;4843812;29;20401;-74
2022/10/29 05:23:58;;;;;;;37.10;35.70;;;14.90;93.90;;;;;;4845245;29;20037;-74
2022/10/29 05:26:24;;;;;;;57.15;55.00;;;14.70;93.80;;;;;;4860560;29;20116;-74
2022/10/29 05:28:50;;;;;;;116.43;111.72;;;14.50;93.80;;;;;;4877211;29;20051;-74
2022/10/29 05:31:17;;;;;;;124.45;119.25;;;14.20;93.90;;;;;;4877278;29;20041;-74
2022/10/29 05:33:42;;;;;;;138.90;133.00;;;14.00;94.00;;;;;;4860217;29;20532;-74
2022/10/29 05:36:08;;;;;;;142.70;136.52;;;13.90;94.10;;;;;;4877210;29;20100;-74
2022/10/29 05:38:34;;;;;;;142.60;136.48;;;13.80;94.20;;;;;;4844974;29;20056;-74
2022/10/29 05:41:00;;;;;;;147.57;141.20;;;13.70;94.30;;;;;;4877085;29;20337;-75
2022/10/29 05:43:26;;;;;;;155.57;148.75;;;13.70;94.30;;;;;;4877297;29;20517;-74
2022/10/29 05:45:52;;;;;;;157.00;150.10;;;13.70;94.40;;;;;;4860510;29;20052;-74
2022/10/29 05:48:17;;;;;;;162.55;155.45;;;13.70;94.50;;;;;;4860210;29;20405;-74
2022/10/29 05:50:44;;;;;;;164.50;157.27;;;13.70;94.50;;;;;;4876846;29;20040;-74
2022/10/29 05:53:14;;;;;;;162.23;155.05;;;13.70;94.40;;;;;;4859974;29;20037;-74
2022/10/29 05:55:40;;;;;;;162.90;155.70;;;13.80;94.50;;;;;;4859745;29;20045;-74
2022/10/29 05:58:09;;;;;;;166.85;159.48;;;13.80;94.40;;;;;;4876904;29;20524;-74
2022/10/29 06:00:37;;;;;;;165.60;158.30;;;13.80;94.40;;;;;;4876551;29;20490;-74
2022/10/29 06:03:08;;;;;;;165.57;158.25;;;13.80;94.40;;;;;;4859762;29;20035;-74
2022/10/29 06:05:34;;;;;;;162.40;155.13;;;13.80;94.50;;;;;;4860622;29;20478;-74
2022/10/29 06:07:59;;;;;;;162.98;155.68;;;13.80;94.50;;;;;;4859854;29;20075;-74
2022/10/29 06:10:27;;;;;;;163.18;155.85;;;13.70;94.40;;;;;;4844317;29;20596;-74
2022/10/29 06:12:53;;;;;;;162.98;155.68;;;13.70;94.50;;;;;;4876428;29;20470;-74
2022/10/29 06:15:19;;;;;;;163.10;155.82;;;13.70;94.50;;;;;;4860091;29;20048;-74
2022/10/29 06:17:45;;;;;;;;;;;13.70;94.50;;;;;;4860324;29;20108;-74
2022/10/29 06:20:13;;;;;;;161.38;154.15;;;13.70;94.50;;;;;;4859426;29;19998;-74
2022/10/29 06:22:39;;;;;;;164.20;156.90;;;13.60;94.40;;;;;;4876326;29;20149;-74
2022/10/29 06:25:05;;;;;;;163.10;155.82;;;13.60;94.40;;;;;;4859502;29;20033;-73
2022/10/29 06:27:31;;;;;;;;;;;13.60;94.40;;;;;;4876715;29;20382;-74
2022/10/29 06:29:56;;;;;;;164.93;157.57;;;13.50;94.40;;;;;;4859456;29;19927;-74
2022/10/29 06:32:22;;;;;;;163.88;156.57;;;13.40;94.40;;;;;;4858056;29;20116;-73
2022/10/29 06:34:48;;;;;;;164.93;157.63;;;13.30;94.40;;;;;;4874640;29;20037;-73
2022/10/29 06:37:14;;;;;;;165.63;158.25;;;13.30;94.40;;;;;;4844000;29;20081;-73
2022/10/29 06:39:39;;;;;;;164.68;157.38;;;13.20;94.40;;;;;;4876010;29;20093;-74
2022/10/29 06:42:05;;;;;;;162.50;155.25;;;13.10;94.40;;;;;;4859223;29;20036;-73
2022/10/29 06:44:31;;;;;;;162.52;155.27;;;13.00;94.50;;;;;;4859042;29;20045;-74
2022/10/29 06:46:56;;;;;;;160.57;153.38;;;12.90;94.60;;;;;;4859356;29;20037;-73
2022/10/29 06:49:22;;;;;;;156.23;149.15;;;13.00;94.70;;;;;;4859091;29;20122;-73
2022/10/29 06:51:48;;;;;;;155.30;148.30;;;13.00;94.70;;;;;;4859112;29;20033;-73
2022/10/29 06:54:14;;;;;;;155.27;148.27;;;13.10;94.70;;;;;;4859048;29;20411;-74
2022/10/29 06:56:40;;;;;;;157.48;150.40;;;13.20;94.70;;;;;;4875107;29;20063;-74
2022/10/29 06:59:05;;;;;;;155.93;148.93;;;13.30;94.70;;;;;;4858734;29;20045;-73
2022/10/29 07:01:34;;;;;;;154.27;147.30;;;13.30;94.60;;;;;;4858761;29;20043;-73
2022/10/29 07:03:59;;;;;;;155.57;148.57;;;13.40;94.60;;;;;;4858479;29;20069;-73
2022/10/29 07:06:26;;;;;;;156.65;149.57;;;13.50;94.50;;;;;;4875471;29;20057;-73
2022/10/29 07:08:52;;;;;;;154.48;147.45;;;13.50;94.50;;;;;;4858495;29;20097;-73
2022/10/29 07:11:17;;;;;;;150.07;143.20;;;13.50;94.50;;;;;;4858714;29;20037;-73
2022/10/29 07:13:43;;;;;;;152.43;145.52;;;13.50;94.50;;;;;;4875300;29;20573;-73
2022/10/29 07:16:09;;;;;;;154.73;147.77;;;13.50;94.40;;;;;;4875243;29;20088;-73
2022/10/29 07:18:35;;;;;;;152.93;146.05;;;13.40;94.30;;;;;;4858676;29;20033;-73
2022/10/29 07:21:02;;;;;;;152.27;145.48;;;13.20;94.20;;;;;;4858415;29;20378;-74
2022/10/29 07:23:28;;;;;;;156.52;149.43;;;13.00;94.30;;;;;;4858419;29;20370;-73
2022/10/29 07:25:54;;;;;;;145.75;139.15;;;12.90;94.50;;;;;;4874967;29;20049;-73
2022/10/29 07:28:22;;;;;;;142.95;136.35;;;12.80;94.60;;;;;;4858455;29;20044;-74
2022/10/29 07:30:48;;;;;;;142.50;135.93;;;12.80;94.60;;;;;;4858225;29;20047;-73
2022/10/29 07:33:14;;;;;;;145.43;138.80;;;12.80;94.60;;;;;;4857990;29;20122;-72
2022/10/29 07:35:40;;;;;;;;;;;12.80;94.70;;;;;;4875227;29;20021;-74
2022/10/29 07:38:07;;;;;;;142.27;135.70;;;12.80;94.70;;;;;;4874892;29;19919;-73
2022/10/29 07:40:33;;;;;;;141.40;134.90;;;12.90;94.70;;;;;;4857960;29;20127;-74
2022/10/29 07:42:59;;;;;;;144.48;137.88;;;12.90;94.70;;;;;;4858034;29;20454;-74
2022/10/29 07:45:25;;;;;;;142.55;136.00;;;12.90;94.60;;;;;;4842276;29;20041;-73
2022/10/29 07:48:02;;;;;;;142.43;135.82;;;12.90;94.70;;;;;;4874537;29;20390;-74
2022/10/29 07:50:29;;;;;;;141.93;135.32;;;13.00;94.70;;;;;;4874444;29;20029;-73
2022/10/29 07:52:55;;;;;;;143.02;136.43;;;13.00;94.70;;;;;;4874474;29;20028;-74
2022/10/29 07:55:20;;;;;;;142.93;136.32;;;13.00;94.70;;;;;;4842531;29;20037;-74
2022/10/29 07:57:46;;;;;;;142.90;136.23;;;13.00;94.60;;;;;;4856940;29;20063;-74
2022/10/29 08:00:13;;;;;;;142.35;135.65;;;13.00;94.70;;;;;;4857421;29;20115;-73
2022/10/29 08:02:41;;;;;;;140.15;133.57;;;13.10;94.70;;;;;;4857526;29;20025;-74
2022/10/29 08:05:07;;;;;;;138.93;132.43;;;13.20;94.70;;;;;;4856795;29;20033;-74
2022/10/29 08:07:33;;;;;;;138.52;131.98;;;13.20;94.60;;;;;;4873872;29;20139;-74
2022/10/29 08:09:59;;;;;;;137.25;130.75;;;13.20;94.60;;;;;;4873718;29;20033;-74
2022/10/29 08:12:25;;;;;;;134.50;128.15;;;13.20;94.60;;;;;;4857697;29;20033;-74
2022/10/29 08:14:50;;;;;;;135.57;129.27;;;13.10;94.60;;;;;;4857134;29;20037;-74
2022/10/29 08:17:16;;;;;;;135.27;128.95;;;13.10;94.60;;;;;;4841749;29;20131;-74
2022/10/29 08:19:42;;;;;;;134.80;128.50;;;13.10;94.60;;;;;;4857228;29;20036;-74
2022/10/29 08:22:07;;;;;;;131.15;125.05;;;13.10;94.60;;;;;;4841850;29;20029;-75
2022/10/29 08:24:33;;;;;;;132.48;126.30;;;13.10;94.60;;;;;;4874003;29;20504;-74
2022/10/29 08:26:59;;;;;;;129.75;123.78;;;13.00;94.60;;;;;;4857120;29;20033;-73
2022/10/29 08:29:24;;;;;;;131.27;125.28;;;13.00;94.60;;;;;;4873771;29;20037;-73
2022/10/29 08:31:50;;;;;;;131.18;125.18;;;13.00;94.60;;;;;;4857317;29;20160;-74
2022/10/29 08:34:16;;;;;;;128.55;122.65;;;13.00;94.70;;;;;;4842012;29;20105;-74
2022/10/29 08:36:41;;;;;;;129.88;123.88;;;13.00;94.90;;;;;;4841566;29;20395;-74
2022/10/29 08:39:07;;;;;;;129.25;122.95;;;13.00;94.70;;;;;;4873725;29;20104;-74
2022/10/29 08:41:53;;;;;;;128.48;122.47;;;13.00;94.90;;;;;;4857042;29;20448;-73
2022/10/29 08:44:24;;;;;;;129.88;123.85;;;13.00;94.70;;;;;;4856888;29;20037;-75
2022/10/29 08:47:15;;;;;;;123.53;117.70;;;13.00;94.70;;;;;;4857850;29;20028;-74
2022/10/29 08:50:06;;;;;;;124.60;118.70;;;13.00;94.70;;;;;;4873259;29;20044;-74
2022/10/29 08:52:36;;;;;;;126.80;120.80;;;13.00;94.70;;;;;;4856628;29;20036;-73
2022/10/29 08:55:15;;;;;;;124.93;119.03;;;13.00;94.70;;;;;;4872988;29;20081;-73
2022/10/29 08:57:46;;;;;;;122.90;117.20;;;13.00;94.70;;;;;;4874807;29;20045;-73
2022/10/29 09:00:14;;;;;;;123.13;117.43;;;13.00;94.70;;;;;;4874694;29;20454;-73
2022/10/29 09:02:40;;;;;;;123.10;117.40;;;12.90;94.70;;;;;;4857373;29;20097;-73
2022/10/29 09:05:15;;;;;;;123.63;117.93;;;12.90;94.70;;;;;;4858018;29;20033;-74
2022/10/29 09:07:50;;;;;;;120.70;115.10;;;12.90;94.70;;;;;;4874878;29;20045;-74
2022/10/29 09:10:24;;;;;;;117.10;111.72;;;13.00;94.80;;;;;;4874841;29;20040;-74
2022/10/29 09:13:27;;;;;;;121.97;116.38;;;12.90;94.80;;;;;;4843103;29;20034;-74
2022/10/29 09:16:08;;;;;;;121.55;115.95;;;13.00;94.80;;;;;;4844103;29;20344;-73
2022/10/29 09:18:40;;;;;;;119.88;114.38;;;13.00;94.80;;;;;;4839614;29;20466;-73
2022/10/29 09:21:12;;;;;;;119.38;113.88;;;13.00;94.80;;;;;;4856512;29;20030;-73
2022/10/29 09:24:16;;;;;;;117.30;111.90;;;13.10;94.80;;;;;;4856237;29;20037;-73
2022/10/29 09:26:57;;;;;;;117.78;112.38;;;13.10;94.80;;;;;;4839863;29;20086;-72
2022/10/29 09:29:50;;;;;;;116.97;111.68;;;13.10;94.70;;;;;;4843541;29;20442;-73
2022/10/29 09:32:39;;;;;;;118.70;113.22;;;13.10;94.70;;;;;;4845662;29;20061;-73
2022/10/29 09:35:17;;;;;;;119.10;113.65;;;13.10;94.70;;;;;;4868269;29;20465;-72
2022/10/29 09:38:01;;;;;;;118.57;113.18;;;13.10;94.70;;;;;;4874051;29;20088;-72
2022/10/29 09:40:31;;;;;;;120.20;114.78;;;13.10;94.70;;;;;;4856805;29;20060;-71
2022/10/29 09:43:00;;;;;;;116.00;110.70;;;13.20;94.70;;;;;;4853632;29;20053;-72
2022/10/29 09:45:49;;;;;;;115.18;109.95;;;13.20;94.70;;;;;;4867836;29;20050;-72
2022/10/29 09:49:01;;;;;;;115.10;109.80;;;13.30;94.60;;;;;;4867357;29;20486;-72
2022/10/29 09:51:41;;;;;;;116.10;110.80;;;13.30;94.60;;;;;;4860576;29;20074;-71
2022/10/29 09:54:08;;;;;;;118.55;113.15;;;13.30;94.60;;;;;;4862543;29;20049;-74
2022/10/29 09:56:33;;;;;;;;;;;13.40;94.70;;;;;;4863866;29;20053;-73
2022/10/29 09:59:20;;;;;;;120.22;114.65;;;13.50;94.70;;;;;;4838976;29;19916;-73
2022/10/29 10:01:47;;;;;;;115.57;110.32;;;13.60;94.70;;;;;;4855775;29;20034;-74
2022/10/29 10:04:25;;;;;;;123.00;117.40;;;13.60;94.70;;;;;;4823869;29;20517;-73
2022/10/29 10:07:15;;;;;;;119.72;114.22;;;13.70;94.70;;;;;;4856467;29;20481;-72
2022/10/29 10:09:59;;;;;;;119.75;114.25;;;13.70;94.70;;;;;;4858784;29;20038;-72
2022/10/29 10:12:48;;;;;;;120.80;115.30;;;13.90;94.80;;;;;;4859117;29;20078;-73
2022/10/29 10:15:24;;;;;;;115.95;110.55;;;14.00;94.70;;;;;;4849044;29;20116;-73
2022/10/29 10:18:14;;;;;;;121.05;115.47;;;14.00;94.70;;;;;;4859058;29;20034;-73
2022/10/29 10:20:59;;;;;;;119.10;113.68;;;14.10;94.70;;;;;;4841907;29;20029;-73
2022/10/29 10:23:45;;;;;;;120.80;115.20;;;14.20;94.70;;;;;;4859565;29;20034;-72
2022/10/29 10:26:44;;;;;;;118.00;112.60;;;14.30;94.70;;;;;;4858849;29;20036;-75
2022/10/29 10:29:18;;;;;;;121.10;115.50;;;14.40;94.70;;;;;;4841916;29;20045;-72
2022/10/29 10:32:08;;;;;;;116.22;111.03;;;14.50;94.60;;;;;;4858637;29;20038;-74
2022/10/29 10:34:33;;;;;;;120.15;114.70;;;14.70;94.60;;;;;;4858210;29;20033;-72
2022/10/29 10:37:08;;;;;;;116.32;111.00;;;14.80;94.70;;;;;;4842020;29;20336;-73
2022/10/29 10:39:38;;;;;;;113.82;108.55;;;15.00;94.80;;;;;;4842088;29;20049;-73
2022/10/29 10:42:13;;;;;;;118.25;112.85;;;15.10;94.70;;;;;;4842230;29;20026;-74
2022/10/29 10:44:47;;;;;;;115.88;110.65;;;15.20;94.80;;;;;;4858639;29;20045;-75
2022/10/29 10:47:13;;;;;;;114.72;109.55;;;15.40;94.80;;;;;;4858351;29;20030;-72
2022/10/29 10:49:38;;;;;;;117.10;111.82;;;15.50;94.70;;;;;;4858095;29;20109;-72
2022/10/29 10:52:12;;;;;;;114.97;109.78;;;15.50;94.50;;;;;;4857052;29;20120;-73
2022/10/29 10:54:43;;;;;;;118.78;113.38;;;15.50;94.60;;;;;;4864958;29;20376;-73
2022/10/29 10:57:11;;;;;;;115.63;110.43;;;15.60;94.60;;;;;;4870652;29;20120;-73
2022/10/29 10:59:59;;;;;;;118.05;112.65;;;15.70;94.60;;;;;;4864586;29;20098;-74
2022/10/29 11:02:52;;;;;;;116.57;111.20;;;15.90;94.80;;;;;;4863051;29;20042;-73
2022/10/29 11:05:18;;;;;;;117.32;111.93;;;16.20;94.90;;;;;;4857402;29;20033;-72
2022/10/29 11:08:00;;;;;;;106.88;102.07;;;16.60;95.10;;;;;;4857319;29;20391;-72
2022/10/29 11:10:46;;;;;;;109.05;104.15;;;16.90;95.00;;;;;;4857295;29;20042;-73
2022/10/29 11:13:16;;;;;;;112.13;107.05;;;17.20;94.80;;;;;;4841197;29;20021;-72
2022/10/29 11:15:54;;;;;;;110.95;106.05;;;17.30;94.60;;;;;;4857637;29;20033;-72
2022/10/29 11:18:30;;;;;;;109.30;104.40;;;17.40;94.60;;;;;;4857066;29;20451;-72
2022/10/29 11:21:10;;;;;;;109.00;104.15;;;17.40;94.50;;;;;;4858145;29;20037;-75
2022/10/29 11:24:06;;;;;;;102.05;97.55;;;17.30;94.50;;;;;;4857845;29;20030;-73
2022/10/29 11:26:44;;;;;;;100.53;96.03;;;17.10;94.50;;;;;;4858353;29;20034;-73
2022/10/29 11:29:28;;;;;;;98.53;94.13;;;17.10;94.60;;;;;;4857575;29;20502;-73
2022/10/29 11:32:22;;;;;;;104.13;99.43;;;17.00;94.60;;;;;;4857272;29;20379;-73
2022/10/29 11:35:12;;;;;;;110.07;105.10;;;17.00;94.60;;;;;;4857222;29;20054;-73
2022/10/29 11:37:43;;;;;;;105.15;100.45;;;17.00;94.70;;;;;;4857222;29;20029;-72
2022/10/29 11:40:29;;;;;;;84.32;80.70;;;17.00;94.70;;;;;;4857124;29;20080;-73
2022/10/29 11:42:54;;;;;;;100.03;95.65;;;17.00;94.70;;;;;;4857488;29;20034;-74
2022/10/29 11:45:38;;;;;;;85.22;81.53;;;17.10;94.80;;;;;;4856724;29;20033;-74
2022/10/29 11:48:26;;;;;;;96.72;92.43;;;17.20;94.90;;;;;;4856915;29;20544;-74
2022/10/29 11:50:57;;;;;;;87.82;84.03;;;17.30;94.80;;;;;;4857268;29;20051;-75
2022/10/29 11:53:53;;;;;;;89.70;85.80;;;17.40;94.80;;;;;;4839675;29;20029;-74
2022/10/29 11:56:48;;;;;;;84.70;81.03;;;17.50;94.80;;;;;;4856578;29;20045;-72
2022/10/29 11:59:29;;;;;;;76.65;73.35;;;17.60;94.80;;;;;;4839674;29;20037;-72
2022/10/29 12:02:28;;;;;;;49.10;47.13;;;17.80;94.80;;;;;;4839894;29;20554;-74
2022/10/29 12:05:07;;;;;;;56.67;54.33;;;17.90;94.80;;;;;;4856392;29;20089;-73
2022/10/29 12:08:03;;;;;;;47.25;45.35;;;17.90;94.80;;;;;;4856977;29;20029;-72
2022/10/29 12:10:35;;;;;;;42.70;41.00;;;17.90;94.80;;;;;;4856327;29;20477;-73
2022/10/29 12:13:03;;;;;;;37.22;35.78;;;18.10;94.90;;;;;;4865448;29;20477;-73
2022/10/29 12:15:42;;;;;;;39.40;37.90;;;18.10;94.90;;;;;;4874595;29;20172;-73
2022/10/29 12:18:23;;;;;;;41.75;40.15;;;18.30;95.00;;;;;;4871471;29;20367;-72
2022/10/29 12:21:18;;;;;;;38.97;37.47;;;18.40;94.90;;;;;;4873112;29;20504;-71
2022/10/29 12:23:55;;;;;;;40.67;39.08;;;18.50;94.90;;;;;;4874423;29;20409;-72
2022/10/29 12:26:44;;;;;;;37.20;35.80;;;18.60;95.00;;;;;;4874822;29;20033;-73
2022/10/29 12:29:46;;;;;;;23.92;23.02;;;18.80;95.00;;;;;;4839835;29;20045;-71
2022/10/29 12:32:21;;;;;;;22.88;21.98;;;19.00;94.90;;;;;;4855275;29;20653;-72
2022/10/29 12:35:25;;;;;;;21.63;20.75;;;19.10;94.80;;;;;;4857829;29;20029;-73
2022/10/29 12:38:15;;;;;;;23.42;22.52;;;19.10;94.80;;;;;;4858298;29;20029;-72
2022/10/29 12:40:43;;;;;;;31.13;29.92;;;19.10;94.80;;;;;;4874704;29;20044;-72
2022/10/29 12:43:30;;;;;;;30.33;29.13;;;19.00;94.80;;;;;;4874654;29;20037;-73